sensor_id;sensor_type;location;lat;lon;timestamp;P1;durP1;ratioP1;P2;durP2;ratioP2
51824;SDS011;37879;52.986;6.282;2023-06-04T00:01:12;8.50;;;3.33;;
51824;SDS011;37879;52.986;6.282;2023-06-04T00:03:38;6.18;;;2.60;;
51824;SDS011;37879;52.986;6.282;2023-06-04T00:06:03;6.22;;;3.20;;
51824;SDS011;37879;52.986;6.282;2023-06-04T00:08:29;5.70;;;2.80;;
51824;SDS011;37879;52.986;6.282;2023-06-04T00:10:54;7.78;;;3.67;;
51824;SDS011;37879;52.986;6.282;2023-06-04T00:13:20;6.65;;;3.03;;
51824;SDS011;37879;52.986;6.282;2023-06-04T00:15:46;8.77;;;3.13;;
51824;SDS011;37879;52.986;6.282;2023-06-04T00:18:11;4.82;;;3.30;;
51824;SDS011;37879;52.986;6.282;2023-06-04T00:20:38;8.57;;;2.75;;
51824;SDS011;37879;52.986;6.282;2023-06-04T00:23:04;5.47;;;3.20;;
51824;SDS011;37879;52.986;6.282;2023-06-04T00:25:30;6.72;;;3.70;;
51824;SDS011;37879;52.986;6.282;2023-06-04T00:27:56;6.60;;;2.90;;
51824;SDS011;37879;52.986;6.282;2023-06-04T00:30:22;6.85;;;3.53;;
51824;SDS011;37879;52.986;6.282;2023-06-04T00:32:47;4.85;;;3.03;;
51824;SDS011;37879;52.986;6.282;2023-06-04T00:35:13;8.23;;;3.33;;
51824;SDS011;37879;52.986;6.282;2023-06-04T00:37:39;7.50;;;3.50;;
51824;SDS011;37879;52.986;6.282;2023-06-04T00:40:05;6.75;;;3.50;;
51824;SDS011;37879;52.986;6.282;2023-06-04T00:42:31;5.63;;;2.90;;
51824;SDS011;37879;52.986;6.282;2023-06-04T00:44:57;5.15;;;3.20;;
51824;SDS011;37879;52.986;6.282;2023-06-04T00:47:23;7.82;;;3.63;;
51824;SDS011;37879;52.986;6.282;2023-06-04T00:49:49;6.10;;;3.50;;
51824;SDS011;37879;52.986;6.282;2023-06-04T00:52:15;6.60;;;3.78;;
51824;SDS011;37879;52.986;6.282;2023-06-04T00:54:41;6.88;;;3.63;;
51824;SDS011;37879;52.986;6.282;2023-06-04T00:57:07;4.72;;;3.17;;
51824;SDS011;37879;52.986;6.282;2023-06-04T00:59:34;5.55;;;3.42;;
51824;SDS011;37879;52.986;6.282;2023-06-04T01:02:34;5.70;;;2.88;;
51824;SDS011;37879;52.986;6.282;2023-06-04T01:07:45;6.60;;;3.80;;
51824;SDS011;37879;52.986;6.282;2023-06-04T01:10:15;9.55;;;3.28;;
51824;SDS011;37879;52.986;6.282;2023-06-04T01:12:41;9.93;;;3.45;;
51824;SDS011;37879;52.986;6.282;2023-06-04T01:15:07;11.73;;;3.83;;
51824;SDS011;37879;52.986;6.282;2023-06-04T01:17:37;8.38;;;4.43;;
51824;SDS011;37879;52.986;6.282;2023-06-04T01:20:13;6.55;;;3.22;;
51824;SDS011;37879;52.986;6.282;2023-06-04T01:25:43;9.82;;;4.03;;
51824;SDS011;37879;52.986;6.282;2023-06-04T01:28:15;8.35;;;3.40;;
51824;SDS011;37879;52.986;6.282;2023-06-04T01:30:43;9.32;;;3.70;;
51824;SDS011;37879;52.986;6.282;2023-06-04T01:33:16;7.07;;;3.80;;
51824;SDS011;37879;52.986;6.282;2023-06-04T01:35:43;5.65;;;3.08;;
51824;SDS011;37879;52.986;6.282;2023-06-04T01:38:09;6.47;;;3.40;;
51824;SDS011;37879;52.986;6.282;2023-06-04T01:40:35;6.20;;;3.15;;
51824;SDS011;37879;52.986;6.282;2023-06-04T01:43:02;6.22;;;3.88;;
51824;SDS011;37879;52.986;6.282;2023-06-04T01:45:28;6.72;;;3.20;;
51824;SDS011;37879;52.986;6.282;2023-06-04T01:47:54;6.05;;;4.03;;
51824;SDS011;37879;52.986;6.282;2023-06-04T01:50:20;7.95;;;4.20;;
51824;SDS011;37879;52.986;6.282;2023-06-04T01:52:46;7.20;;;3.28;;
51824;SDS011;37879;52.986;6.282;2023-06-04T01:55:12;9.75;;;3.78;;
51824;SDS011;37879;52.986;6.282;2023-06-04T01:57:39;9.27;;;4.47;;
51824;SDS011;37879;52.986;6.282;2023-06-04T02:00:06;7.65;;;4.20;;
51824;SDS011;37879;52.986;6.282;2023-06-04T02:02:34;10.75;;;4.57;;
51824;SDS011;37879;52.986;6.282;2023-06-04T02:05:01;9.85;;;3.85;;
51824;SDS011;37879;52.986;6.282;2023-06-04T02:07:27;6.53;;;3.03;;
51824;SDS011;37879;52.986;6.282;2023-06-04T02:09:52;8.43;;;4.38;;
51824;SDS011;37879;52.986;6.282;2023-06-04T02:12:18;8.25;;;3.88;;
51824;SDS011;37879;52.986;6.282;2023-06-04T02:14:44;6.60;;;4.00;;
51824;SDS011;37879;52.986;6.282;2023-06-04T02:17:12;9.52;;;4.18;;
51824;SDS011;37879;52.986;6.282;2023-06-04T02:19:39;10.70;;;4.45;;
51824;SDS011;37879;52.986;6.282;2023-06-04T02:22:12;6.40;;;4.00;;
51824;SDS011;37879;52.986;6.282;2023-06-04T02:24:38;9.02;;;4.93;;
51824;SDS011;37879;52.986;6.282;2023-06-04T02:27:07;10.07;;;4.45;;
51824;SDS011;37879;52.986;6.282;2023-06-04T02:29:33;10.75;;;4.05;;
51824;SDS011;37879;52.986;6.282;2023-06-04T02:32:00;6.28;;;3.97;;
51824;SDS011;37879;52.986;6.282;2023-06-04T02:34:26;8.52;;;4.32;;
51824;SDS011;37879;52.986;6.282;2023-06-04T02:36:52;7.82;;;4.45;;
51824;SDS011;37879;52.986;6.282;2023-06-04T02:39:18;9.95;;;4.63;;
51824;SDS011;37879;52.986;6.282;2023-06-04T02:41:44;8.45;;;4.15;;
51824;SDS011;37879;52.986;6.282;2023-06-04T02:44:10;8.57;;;4.13;;
51824;SDS011;37879;52.986;6.282;2023-06-04T02:46:36;7.97;;;4.00;;
51824;SDS011;37879;52.986;6.282;2023-06-04T02:49:02;8.50;;;4.30;;
51824;SDS011;37879;52.986;6.282;2023-06-04T02:51:28;7.22;;;3.90;;
51824;SDS011;37879;52.986;6.282;2023-06-04T02:53:54;11.60;;;4.95;;
51824;SDS011;37879;52.986;6.282;2023-06-04T02:56:20;5.88;;;4.03;;
51824;SDS011;37879;52.986;6.282;2023-06-04T02:58:55;8.88;;;4.35;;
51824;SDS011;37879;52.986;6.282;2023-06-04T03:01:24;9.77;;;4.28;;
51824;SDS011;37879;52.986;6.282;2023-06-04T03:03:51;8.77;;;4.60;;
51824;SDS011;37879;52.986;6.282;2023-06-04T03:06:18;10.98;;;4.30;;
51824;SDS011;37879;52.986;6.282;2023-06-04T03:08:48;9.05;;;4.40;;
51824;SDS011;37879;52.986;6.282;2023-06-04T03:11:17;10.30;;;4.75;;
51824;SDS011;37879;52.986;6.282;2023-06-04T03:13:45;8.27;;;3.92;;
51824;SDS011;37879;52.986;6.282;2023-06-04T03:16:12;8.20;;;4.13;;
51824;SDS011;37879;52.986;6.282;2023-06-04T03:18:41;13.30;;;6.00;;
51824;SDS011;37879;52.986;6.282;2023-06-04T03:21:08;15.55;;;5.57;;
51824;SDS011;37879;52.986;6.282;2023-06-04T03:23:34;9.48;;;5.07;;
51824;SDS011;37879;52.986;6.282;2023-06-04T03:26:01;9.85;;;5.43;;
51824;SDS011;37879;52.986;6.282;2023-06-04T03:28:27;10.32;;;4.68;;
51824;SDS011;37879;52.986;6.282;2023-06-04T03:30:52;10.00;;;5.22;;
51824;SDS011;37879;52.986;6.282;2023-06-04T03:33:18;7.10;;;4.38;;
51824;SDS011;37879;52.986;6.282;2023-06-04T03:35:44;6.65;;;4.32;;
51824;SDS011;37879;52.986;6.282;2023-06-04T03:38:10;10.55;;;5.28;;
51824;SDS011;37879;52.986;6.282;2023-06-04T03:40:36;9.38;;;4.70;;
51824;SDS011;37879;52.986;6.282;2023-06-04T03:43:02;10.30;;;6.03;;
51824;SDS011;37879;52.986;6.282;2023-06-04T03:45:29;10.93;;;5.28;;
51824;SDS011;37879;52.986;6.282;2023-06-04T03:47:55;11.43;;;5.95;;
51824;SDS011;37879;52.986;6.282;2023-06-04T03:50:21;10.88;;;6.03;;
51824;SDS011;37879;52.986;6.282;2023-06-04T03:52:48;8.80;;;5.30;;
51824;SDS011;37879;52.986;6.282;2023-06-04T03:55:14;8.60;;;5.00;;
51824;SDS011;37879;52.986;6.282;2023-06-04T03:57:40;14.65;;;6.35;;
51824;SDS011;37879;52.986;6.282;2023-06-04T04:00:07;10.88;;;5.40;;
51824;SDS011;37879;52.986;6.282;2023-06-04T04:02:37;11.02;;;5.35;;
51824;SDS011;37879;52.986;6.282;2023-06-04T04:05:03;10.38;;;5.72;;
51824;SDS011;37879;52.986;6.282;2023-06-04T04:07:29;9.02;;;5.07;;
51824;SDS011;37879;52.986;6.282;2023-06-04T04:09:55;10.60;;;5.63;;
51824;SDS011;37879;52.986;6.282;2023-06-04T04:12:20;16.13;;;5.72;;
51824;SDS011;37879;52.986;6.282;2023-06-04T04:14:46;8.90;;;4.80;;
51824;SDS011;37879;52.986;6.282;2023-06-04T04:17:12;9.15;;;4.70;;
51824;SDS011;37879;52.986;6.282;2023-06-04T04:19:38;14.00;;;5.45;;
51824;SDS011;37879;52.986;6.282;2023-06-04T04:22:04;9.32;;;5.10;;
51824;SDS011;37879;52.986;6.282;2023-06-04T04:24:31;11.02;;;5.97;;
51824;SDS011;37879;52.986;6.282;2023-06-04T04:26:59;10.10;;;5.30;;
51824;SDS011;37879;52.986;6.282;2023-06-04T04:29:25;11.05;;;5.55;;
51824;SDS011;37879;52.986;6.282;2023-06-04T04:31:52;9.63;;;5.15;;
51824;SDS011;37879;52.986;6.282;2023-06-04T04:34:21;11.57;;;4.85;;
51824;SDS011;37879;52.986;6.282;2023-06-04T04:36:48;8.20;;;4.90;;
51824;SDS011;37879;52.986;6.282;2023-06-04T04:39:23;12.40;;;5.30;;
51824;SDS011;37879;52.986;6.282;2023-06-04T04:41:50;8.65;;;5.15;;
51824;SDS011;37879;52.986;6.282;2023-06-04T04:44:16;8.07;;;4.50;;
51824;SDS011;37879;52.986;6.282;2023-06-04T04:46:42;10.77;;;5.25;;
51824;SDS011;37879;52.986;6.282;2023-06-04T04:49:07;9.20;;;5.55;;
51824;SDS011;37879;52.986;6.282;2023-06-04T04:51:33;11.20;;;5.25;;
51824;SDS011;37879;52.986;6.282;2023-06-04T04:53:59;13.68;;;5.70;;
51824;SDS011;37879;52.986;6.282;2023-06-04T04:56:28;10.77;;;5.38;;
51824;SDS011;37879;52.986;6.282;2023-06-04T04:58:54;10.07;;;4.57;;
51824;SDS011;37879;52.986;6.282;2023-06-04T05:01:20;11.38;;;5.72;;
51824;SDS011;37879;52.986;6.282;2023-06-04T05:03:46;8.10;;;4.88;;
51824;SDS011;37879;52.986;6.282;2023-06-04T05:06:12;10.45;;;5.35;;
51824;SDS011;37879;52.986;6.282;2023-06-04T05:08:37;8.88;;;4.53;;
51824;SDS011;37879;52.986;6.282;2023-06-04T05:11:03;14.10;;;6.13;;
51824;SDS011;37879;52.986;6.282;2023-06-04T05:13:29;10.88;;;5.15;;
51824;SDS011;37879;52.986;6.282;2023-06-04T05:15:54;7.68;;;5.28;;
51824;SDS011;37879;52.986;6.282;2023-06-04T05:18:20;7.07;;;4.60;;
51824;SDS011;37879;52.986;6.282;2023-06-04T05:20:48;7.70;;;4.18;;
51824;SDS011;37879;52.986;6.282;2023-06-04T05:23:14;9.07;;;5.05;;
51824;SDS011;37879;52.986;6.282;2023-06-04T05:25:40;11.00;;;5.43;;
51824;SDS011;37879;52.986;6.282;2023-06-04T05:28:08;10.93;;;4.57;;
51824;SDS011;37879;52.986;6.282;2023-06-04T05:30:33;9.85;;;4.60;;
51824;SDS011;37879;52.986;6.282;2023-06-04T05:32:59;8.13;;;5.15;;
51824;SDS011;37879;52.986;6.282;2023-06-04T05:35:27;11.43;;;5.15;;
51824;SDS011;37879;52.986;6.282;2023-06-04T05:37:53;10.85;;;5.82;;
51824;SDS011;37879;52.986;6.282;2023-06-04T05:40:19;14.35;;;6.25;;
51824;SDS011;37879;52.986;6.282;2023-06-04T05:42:48;12.43;;;5.38;;
51824;SDS011;37879;52.986;6.282;2023-06-04T05:45:14;6.82;;;4.95;;
51824;SDS011;37879;52.986;6.282;2023-06-04T05:47:40;11.38;;;5.65;;
51824;SDS011;37879;52.986;6.282;2023-06-04T05:50:06;9.15;;;6.50;;
51824;SDS011;37879;52.986;6.282;2023-06-04T05:52:32;10.75;;;5.97;;
51824;SDS011;37879;52.986;6.282;2023-06-04T05:55:02;7.43;;;5.88;;
51824;SDS011;37879;52.986;6.282;2023-06-04T05:57:27;10.60;;;6.13;;
51824;SDS011;37879;52.986;6.282;2023-06-04T05:59:53;10.07;;;6.18;;
51824;SDS011;37879;52.986;6.282;2023-06-04T06:02:19;9.13;;;5.18;;
51824;SDS011;37879;52.986;6.282;2023-06-04T06:04:44;10.88;;;6.72;;
51824;SDS011;37879;52.986;6.282;2023-06-04T06:07:10;8.43;;;6.25;;
51824;SDS011;37879;52.986;6.282;2023-06-04T06:09:36;9.68;;;5.85;;
51824;SDS011;37879;52.986;6.282;2023-06-04T06:12:01;10.27;;;4.97;;
51824;SDS011;37879;52.986;6.282;2023-06-04T06:14:27;12.35;;;5.90;;
51824;SDS011;37879;52.986;6.282;2023-06-04T06:16:53;12.40;;;5.88;;
51824;SDS011;37879;52.986;6.282;2023-06-04T06:19:18;9.65;;;5.90;;
51824;SDS011;37879;52.986;6.282;2023-06-04T06:21:44;13.45;;;5.97;;
51824;SDS011;37879;52.986;6.282;2023-06-04T06:24:10;9.82;;;6.03;;
51824;SDS011;37879;52.986;6.282;2023-06-04T06:26:35;10.07;;;5.55;;
51824;SDS011;37879;52.986;6.282;2023-06-04T06:29:02;11.65;;;7.18;;
51824;SDS011;37879;52.986;6.282;2023-06-04T06:31:27;8.15;;;5.40;;
51824;SDS011;37879;52.986;6.282;2023-06-04T06:33:53;9.77;;;4.03;;
51824;SDS011;37879;52.986;6.282;2023-06-04T06:36:19;10.52;;;4.03;;
51824;SDS011;37879;52.986;6.282;2023-06-04T06:38:45;6.13;;;3.00;;
51824;SDS011;37879;52.986;6.282;2023-06-04T06:41:11;10.52;;;3.55;;
51824;SDS011;37879;52.986;6.282;2023-06-04T06:43:37;7.70;;;3.75;;
51824;SDS011;37879;52.986;6.282;2023-06-04T06:46:03;9.55;;;3.17;;
51824;SDS011;37879;52.986;6.282;2023-06-04T06:48:28;5.70;;;3.95;;
51824;SDS011;37879;52.986;6.282;2023-06-04T06:50:54;6.13;;;3.65;;
51824;SDS011;37879;52.986;6.282;2023-06-04T06:53:20;7.25;;;3.88;;
51824;SDS011;37879;52.986;6.282;2023-06-04T06:55:46;7.03;;;3.45;;
51824;SDS011;37879;52.986;6.282;2023-06-04T06:58:11;8.27;;;3.90;;
51824;SDS011;37879;52.986;6.282;2023-06-04T07:00:37;8.45;;;3.83;;
51824;SDS011;37879;52.986;6.282;2023-06-04T07:03:02;5.00;;;2.28;;
51824;SDS011;37879;52.986;6.282;2023-06-04T07:05:29;7.82;;;3.78;;
51824;SDS011;37879;52.986;6.282;2023-06-04T07:07:55;7.85;;;3.55;;
51824;SDS011;37879;52.986;6.282;2023-06-04T07:10:22;7.07;;;3.25;;
51824;SDS011;37879;52.986;6.282;2023-06-04T07:12:49;9.50;;;3.50;;
51824;SDS011;37879;52.986;6.282;2023-06-04T07:15:15;5.25;;;3.13;;
51824;SDS011;37879;52.986;6.282;2023-06-04T07:17:40;5.47;;;2.58;;
51824;SDS011;37879;52.986;6.282;2023-06-04T07:20:06;7.32;;;3.55;;
51824;SDS011;37879;52.986;6.282;2023-06-04T07:22:33;5.65;;;1.95;;
51824;SDS011;37879;52.986;6.282;2023-06-04T07:24:59;3.97;;;2.10;;
51824;SDS011;37879;52.986;6.282;2023-06-04T07:27:25;5.93;;;2.15;;
51824;SDS011;37879;52.986;6.282;2023-06-04T07:29:51;3.78;;;1.58;;
51824;SDS011;37879;52.986;6.282;2023-06-04T07:32:17;5.40;;;2.35;;
51824;SDS011;37879;52.986;6.282;2023-06-04T07:34:43;8.65;;;1.80;;
51824;SDS011;37879;52.986;6.282;2023-06-04T07:37:09;2.35;;;1.30;;
51824;SDS011;37879;52.986;6.282;2023-06-04T07:39:35;3.63;;;1.55;;
51824;SDS011;37879;52.986;6.282;2023-06-04T07:42:00;3.50;;;1.90;;
51824;SDS011;37879;52.986;6.282;2023-06-04T07:44:26;2.75;;;1.67;;
51824;SDS011;37879;52.986;6.282;2023-06-04T07:46:52;3.78;;;1.70;;
51824;SDS011;37879;52.986;6.282;2023-06-04T07:49:17;4.22;;;1.73;;
51824;SDS011;37879;52.986;6.282;2023-06-04T07:51:43;5.78;;;1.77;;
51824;SDS011;37879;52.986;6.282;2023-06-04T07:54:09;7.30;;;1.77;;
51824;SDS011;37879;52.986;6.282;2023-06-04T07:56:35;4.07;;;1.33;;
51824;SDS011;37879;52.986;6.282;2023-06-04T07:59:01;4.28;;;1.63;;
51824;SDS011;37879;52.986;6.282;2023-06-04T08:01:27;4.97;;;1.90;;
51824;SDS011;37879;52.986;6.282;2023-06-04T08:03:52;5.78;;;1.30;;
51824;SDS011;37879;52.986;6.282;2023-06-04T08:06:18;3.28;;;1.40;;
51824;SDS011;37879;52.986;6.282;2023-06-04T08:08:44;5.30;;;1.50;;
51824;SDS011;37879;52.986;6.282;2023-06-04T08:11:14;3.65;;;1.58;;
51824;SDS011;37879;52.986;6.282;2023-06-04T08:13:40;6.28;;;1.55;;
51824;SDS011;37879;52.986;6.282;2023-06-04T08:16:06;5.22;;;1.90;;
51824;SDS011;37879;52.986;6.282;2023-06-04T08:18:37;3.78;;;1.42;;
51824;SDS011;37879;52.986;6.282;2023-06-04T08:21:03;4.97;;;1.75;;
51824;SDS011;37879;52.986;6.282;2023-06-04T08:23:28;4.80;;;1.73;;
51824;SDS011;37879;52.986;6.282;2023-06-04T08:25:54;6.43;;;2.13;;
51824;SDS011;37879;52.986;6.282;2023-06-04T08:28:20;3.33;;;1.10;;
51824;SDS011;37879;52.986;6.282;2023-06-04T08:30:46;3.63;;;1.40;;
51824;SDS011;37879;52.986;6.282;2023-06-04T08:33:11;3.88;;;1.70;;
51824;SDS011;37879;52.986;6.282;2023-06-04T08:35:37;2.72;;;1.30;;
51824;SDS011;37879;52.986;6.282;2023-06-04T08:38:02;5.18;;;1.95;;
51824;SDS011;37879;52.986;6.282;2023-06-04T08:40:28;3.10;;;1.40;;
51824;SDS011;37879;52.986;6.282;2023-06-04T08:42:55;8.77;;;1.80;;
51824;SDS011;37879;52.986;6.282;2023-06-04T08:45:24;1.90;;;1.30;;
51824;SDS011;37879;52.986;6.282;2023-06-04T08:47:51;6.82;;;1.65;;
51824;SDS011;37879;52.986;6.282;2023-06-04T08:50:17;4.38;;;1.85;;
51824;SDS011;37879;52.986;6.282;2023-06-04T08:52:44;6.78;;;1.77;;
51824;SDS011;37879;52.986;6.282;2023-06-04T08:55:11;5.10;;;1.80;;
51824;SDS011;37879;52.986;6.282;2023-06-04T08:57:39;5.75;;;1.63;;
51824;SDS011;37879;52.986;6.282;2023-06-04T09:00:05;4.30;;;1.50;;
51824;SDS011;37879;52.986;6.282;2023-06-04T09:02:36;4.57;;;1.60;;
51824;SDS011;37879;52.986;6.282;2023-06-04T09:05:03;4.05;;;1.45;;
51824;SDS011;37879;52.986;6.282;2023-06-04T09:07:30;3.15;;;1.23;;
51824;SDS011;37879;52.986;6.282;2023-06-04T09:09:56;4.15;;;1.40;;
51824;SDS011;37879;52.986;6.282;2023-06-04T09:12:24;4.35;;;1.95;;
51824;SDS011;37879;52.986;6.282;2023-06-04T09:14:51;3.80;;;1.75;;
51824;SDS011;37879;52.986;6.282;2023-06-04T09:17:21;4.07;;;1.70;;
51824;SDS011;37879;52.986;6.282;2023-06-04T09:19:50;4.10;;;1.25;;
51824;SDS011;37879;52.986;6.282;2023-06-04T09:22:16;4.90;;;1.45;;
51824;SDS011;37879;52.986;6.282;2023-06-04T09:24:43;2.72;;;1.30;;
51824;SDS011;37879;52.986;6.282;2023-06-04T09:27:13;3.58;;;1.50;;
51824;SDS011;37879;52.986;6.282;2023-06-04T09:29:48;3.80;;;1.38;;
51824;SDS011;37879;52.986;6.282;2023-06-04T09:32:23;4.85;;;1.55;;
51824;SDS011;37879;52.986;6.282;2023-06-04T09:34:49;3.53;;;1.40;;
51824;SDS011;37879;52.986;6.282;2023-06-04T09:37:16;5.93;;;1.80;;
51824;SDS011;37879;52.986;6.282;2023-06-04T09:39:52;4.10;;;1.25;;
51824;SDS011;37879;52.986;6.282;2023-06-04T09:42:21;4.82;;;1.70;;
51824;SDS011;37879;52.986;6.282;2023-06-04T09:44:47;4.13;;;1.77;;
51824;SDS011;37879;52.986;6.282;2023-06-04T09:47:13;3.17;;;1.70;;
51824;SDS011;37879;52.986;6.282;2023-06-04T09:49:42;4.35;;;1.15;;
51824;SDS011;37879;52.986;6.282;2023-06-04T09:52:12;3.40;;;1.20;;
51824;SDS011;37879;52.986;6.282;2023-06-04T09:54:39;3.50;;;1.52;;
51824;SDS011;37879;52.986;6.282;2023-06-04T09:57:16;4.55;;;2.05;;
51824;SDS011;37879;52.986;6.282;2023-06-04T09:59:43;3.33;;;1.27;;
51824;SDS011;37879;52.986;6.282;2023-06-04T10:02:17;6.88;;;1.77;;
51824;SDS011;37879;52.986;6.282;2023-06-04T10:04:44;4.20;;;1.48;;
51824;SDS011;37879;52.986;6.282;2023-06-04T10:07:16;4.35;;;1.65;;
51824;SDS011;37879;52.986;6.282;2023-06-04T10:09:42;4.03;;;1.80;;
51824;SDS011;37879;52.986;6.282;2023-06-04T10:12:14;4.25;;;1.90;;
51824;SDS011;37879;52.986;6.282;2023-06-04T10:14:45;5.53;;;1.70;;
51824;SDS011;37879;52.986;6.282;2023-06-04T10:17:19;4.80;;;2.17;;
51824;SDS011;37879;52.986;6.282;2023-06-04T10:19:46;3.03;;;1.23;;
51824;SDS011;37879;52.986;6.282;2023-06-04T10:22:14;5.03;;;1.70;;
51824;SDS011;37879;52.986;6.282;2023-06-04T10:24:40;3.13;;;1.38;;
51824;SDS011;37879;52.986;6.282;2023-06-04T10:27:06;5.93;;;1.88;;
51824;SDS011;37879;52.986;6.282;2023-06-04T10:29:36;3.25;;;1.65;;
51824;SDS011;37879;52.986;6.282;2023-06-04T10:32:02;4.60;;;2.15;;
51824;SDS011;37879;52.986;6.282;2023-06-04T10:34:28;6.03;;;2.08;;
51824;SDS011;37879;52.986;6.282;2023-06-04T10:36:55;6.70;;;2.38;;
51824;SDS011;37879;52.986;6.282;2023-06-04T10:39:27;4.75;;;1.80;;
51824;SDS011;37879;52.986;6.282;2023-06-04T10:42:12;3.55;;;1.52;;
51824;SDS011;37879;52.986;6.282;2023-06-04T10:44:48;3.10;;;1.23;;
51824;SDS011;37879;52.986;6.282;2023-06-04T10:47:21;4.40;;;2.17;;
51824;SDS011;37879;52.986;6.282;2023-06-04T10:49:49;3.78;;;1.48;;
51824;SDS011;37879;52.986;6.282;2023-06-04T10:52:16;3.10;;;1.55;;
51824;SDS011;37879;52.986;6.282;2023-06-04T10:54:41;6.00;;;1.85;;
51824;SDS011;37879;52.986;6.282;2023-06-04T10:57:12;4.07;;;1.42;;
51824;SDS011;37879;52.986;6.282;2023-06-04T10:59:39;3.70;;;1.60;;
51824;SDS011;37879;52.986;6.282;2023-06-04T11:02:08;2.60;;;1.63;;
51824;SDS011;37879;52.986;6.282;2023-06-04T11:04:34;6.25;;;1.75;;
51824;SDS011;37879;52.986;6.282;2023-06-04T11:07:02;3.92;;;1.58;;
51824;SDS011;37879;52.986;6.282;2023-06-04T11:09:35;3.55;;;1.48;;
51824;SDS011;37879;52.986;6.282;2023-06-04T11:12:03;3.63;;;1.50;;
51824;SDS011;37879;52.986;6.282;2023-06-04T11:14:30;4.80;;;1.58;;
51824;SDS011;37879;52.986;6.282;2023-06-04T11:16:56;4.50;;;1.90;;
51824;SDS011;37879;52.986;6.282;2023-06-04T11:19:22;3.63;;;1.73;;
51824;SDS011;37879;52.986;6.282;2023-06-04T11:21:48;2.20;;;1.25;;
51824;SDS011;37879;52.986;6.282;2023-06-04T11:24:14;3.10;;;1.35;;
51824;SDS011;37879;52.986;6.282;2023-06-04T11:26:41;3.75;;;1.65;;
51824;SDS011;37879;52.986;6.282;2023-06-04T11:29:10;3.60;;;1.30;;
51824;SDS011;37879;52.986;6.282;2023-06-04T11:31:40;4.78;;;1.90;;
51824;SDS011;37879;52.986;6.282;2023-06-04T11:34:10;3.58;;;1.50;;
51824;SDS011;37879;52.986;6.282;2023-06-04T11:36:38;4.00;;;1.40;;
51824;SDS011;37879;52.986;6.282;2023-06-04T11:39:04;4.55;;;1.58;;
51824;SDS011;37879;52.986;6.282;2023-06-04T11:41:33;3.28;;;1.30;;
51824;SDS011;37879;52.986;6.282;2023-06-04T11:44:04;2.30;;;1.10;;
51824;SDS011;37879;52.986;6.282;2023-06-04T11:46:33;2.05;;;1.20;;
51824;SDS011;37879;52.986;6.282;2023-06-04T11:49:00;5.47;;;1.73;;
51824;SDS011;37879;52.986;6.282;2023-06-04T11:51:27;3.88;;;1.48;;
51824;SDS011;37879;52.986;6.282;2023-06-04T11:53:53;1.80;;;1.27;;
51824;SDS011;37879;52.986;6.282;2023-06-04T11:56:20;3.50;;;1.73;;
51824;SDS011;37879;52.986;6.282;2023-06-04T11:58:46;4.82;;;1.30;;
51824;SDS011;37879;52.986;6.282;2023-06-04T12:01:12;1.75;;;1.20;;
51824;SDS011;37879;52.986;6.282;2023-06-04T12:03:41;3.53;;;1.25;;
51824;SDS011;37879;52.986;6.282;2023-06-04T12:08:51;2.92;;;1.60;;
51824;SDS011;37879;52.986;6.282;2023-06-04T12:11:28;4.07;;;1.45;;
51824;SDS011;37879;52.986;6.282;2023-06-04T12:13:56;3.10;;;1.52;;
51824;SDS011;37879;52.986;6.282;2023-06-04T12:16:29;3.28;;;1.00;;
51824;SDS011;37879;52.986;6.282;2023-06-04T12:19:11;2.92;;;1.08;;
51824;SDS011;37879;52.986;6.282;2023-06-04T12:21:38;2.80;;;1.13;;
51824;SDS011;37879;52.986;6.282;2023-06-04T12:24:10;2.95;;;1.33;;
51824;SDS011;37879;52.986;6.282;2023-06-04T12:26:38;4.78;;;1.55;;
51824;SDS011;37879;52.986;6.282;2023-06-04T12:29:15;2.55;;;0.90;;
51824;SDS011;37879;52.986;6.282;2023-06-04T12:31:43;2.63;;;1.40;;
51824;SDS011;37879;52.986;6.282;2023-06-04T12:34:10;3.17;;;1.23;;
51824;SDS011;37879;52.986;6.282;2023-06-04T12:36:38;2.85;;;1.27;;
51824;SDS011;37879;52.986;6.282;2023-06-04T12:39:04;3.38;;;1.35;;
51824;SDS011;37879;52.986;6.282;2023-06-04T12:41:30;2.88;;;1.25;;
51824;SDS011;37879;52.986;6.282;2023-06-04T12:43:58;2.38;;;1.10;;
51824;SDS011;37879;52.986;6.282;2023-06-04T12:46:24;3.50;;;1.38;;
51824;SDS011;37879;52.986;6.282;2023-06-04T12:48:50;4.38;;;1.55;;
51824;SDS011;37879;52.986;6.282;2023-06-04T12:51:17;3.10;;;1.17;;
51824;SDS011;37879;52.986;6.282;2023-06-04T12:53:43;3.60;;;1.23;;
51824;SDS011;37879;52.986;6.282;2023-06-04T12:56:09;2.92;;;1.42;;
51824;SDS011;37879;52.986;6.282;2023-06-04T12:58:35;4.15;;;1.10;;
51824;SDS011;37879;52.986;6.282;2023-06-04T13:01:01;5.90;;;1.90;;
51824;SDS011;37879;52.986;6.282;2023-06-04T13:03:29;5.25;;;1.30;;
51824;SDS011;37879;52.986;6.282;2023-06-04T13:05:55;3.15;;;1.60;;
51824;SDS011;37879;52.986;6.282;2023-06-04T13:08:21;2.20;;;1.15;;
51824;SDS011;37879;52.986;6.282;2023-06-04T13:10:47;5.10;;;1.58;;
51824;SDS011;37879;52.986;6.282;2023-06-04T13:13:16;6.00;;;1.75;;
51824;SDS011;37879;52.986;6.282;2023-06-04T13:15:42;2.58;;;1.25;;
51824;SDS011;37879;52.986;6.282;2023-06-04T13:18:08;3.20;;;1.30;;
51824;SDS011;37879;52.986;6.282;2023-06-04T13:20:35;3.75;;;1.70;;
51824;SDS011;37879;52.986;6.282;2023-06-04T13:23:01;4.68;;;1.75;;
51824;SDS011;37879;52.986;6.282;2023-06-04T13:25:27;2.47;;;1.30;;
51824;SDS011;37879;52.986;6.282;2023-06-04T13:27:53;3.20;;;1.20;;
51824;SDS011;37879;52.986;6.282;2023-06-04T13:30:20;4.22;;;1.38;;
51824;SDS011;37879;52.986;6.282;2023-06-04T13:32:46;5.00;;;1.55;;
51824;SDS011;37879;52.986;6.282;2023-06-04T13:35:12;3.13;;;1.20;;
51824;SDS011;37879;52.986;6.282;2023-06-04T13:37:38;4.65;;;1.77;;
51824;SDS011;37879;52.986;6.282;2023-06-04T13:40:04;2.42;;;1.42;;
51824;SDS011;37879;52.986;6.282;2023-06-04T13:42:30;4.55;;;1.73;;
51824;SDS011;37879;52.986;6.282;2023-06-04T13:44:55;3.97;;;1.20;;
51824;SDS011;37879;52.986;6.282;2023-06-04T13:47:21;3.78;;;1.65;;
51824;SDS011;37879;52.986;6.282;2023-06-04T13:49:47;3.67;;;1.90;;
51824;SDS011;37879;52.986;6.282;2023-06-04T13:52:12;3.05;;;1.73;;
51824;SDS011;37879;52.986;6.282;2023-06-04T13:54:38;2.85;;;1.77;;
51824;SDS011;37879;52.986;6.282;2023-06-04T13:57:04;2.67;;;1.58;;
51824;SDS011;37879;52.986;6.282;2023-06-04T13:59:31;2.42;;;1.20;;
51824;SDS011;37879;52.986;6.282;2023-06-04T14:01:57;4.25;;;1.70;;
51824;SDS011;37879;52.986;6.282;2023-06-04T14:04:23;1.67;;;1.05;;
51824;SDS011;37879;52.986;6.282;2023-06-04T14:06:49;4.13;;;1.60;;
51824;SDS011;37879;52.986;6.282;2023-06-04T14:09:14;3.05;;;1.40;;
51824;SDS011;37879;52.986;6.282;2023-06-04T14:11:40;3.38;;;1.10;;
51824;SDS011;37879;52.986;6.282;2023-06-04T14:14:06;2.80;;;1.30;;
51824;SDS011;37879;52.986;6.282;2023-06-04T14:16:32;6.03;;;1.58;;
51824;SDS011;37879;52.986;6.282;2023-06-04T14:18:58;3.90;;;1.45;;
51824;SDS011;37879;52.986;6.282;2023-06-04T14:21:24;3.30;;;1.73;;
51824;SDS011;37879;52.986;6.282;2023-06-04T14:23:51;3.50;;;1.40;;
51824;SDS011;37879;52.986;6.282;2023-06-04T14:26:17;3.75;;;1.38;;
51824;SDS011;37879;52.986;6.282;2023-06-04T14:28:43;4.07;;;1.10;;
51824;SDS011;37879;52.986;6.282;2023-06-04T14:31:09;5.32;;;1.70;;
51824;SDS011;37879;52.986;6.282;2023-06-04T14:33:35;4.38;;;1.77;;
51824;SDS011;37879;52.986;6.282;2023-06-04T14:36:02;5.65;;;1.45;;
51824;SDS011;37879;52.986;6.282;2023-06-04T14:38:28;3.75;;;2.13;;
51824;SDS011;37879;52.986;6.282;2023-06-04T14:40:54;4.20;;;2.03;;
51824;SDS011;37879;52.986;6.282;2023-06-04T14:43:21;2.65;;;1.52;;
51824;SDS011;37879;52.986;6.282;2023-06-04T14:45:47;1.90;;;1.00;;
51824;SDS011;37879;52.986;6.282;2023-06-04T14:48:13;2.67;;;1.33;;
51824;SDS011;37879;52.986;6.282;2023-06-04T14:50:39;2.90;;;1.50;;
51824;SDS011;37879;52.986;6.282;2023-06-04T14:53:04;6.30;;;1.50;;